Shaniko, Oregon
Current Conditions -  °F | °C
As of 4:53 PM on Sunday 23 Nov 2014 (Local Time) from KDLS Reporting Station
Overcast Overcast  
Wind Chill: 46°   Ceiling: 5500
Heat Index: 48°   Visibility: 10mi
Dew Point: 41°   Wind: 5mph
Humidity: 77%   Direction: 360°N
Pressure: 30.25"   Gusts: NA
Location:  45°N, 120.75°W
Report Text: KDLS 240053Z AUTO 36004KT 10SM FEW039 BKN055 OVC075 09/05 A3025 RMK AO2 SLP243 T00890050 $
Loading
Personal Weather Stations






























Interactive Weather Map New forecast layout! Learn more

10-Day Weather Forecast

Advertisements
Track Severe Weather on mobile